createdAt,value
2022-10-06T00:04:29.789Z,100.00
2022-10-06T00:14:31.107Z,100.00
2022-10-06T00:24:32.487Z,100.00
2022-10-06T00:34:33.984Z,100.00
2022-10-06T00:44:35.296Z,100.00
2022-10-06T00:54:36.600Z,100.00
2022-10-06T01:04:37.923Z,100.00
2022-10-06T01:14:39.308Z,100.00
2022-10-06T01:24:40.603Z,100.00
2022-10-06T01:34:41.984Z,100.00
2022-10-06T01:44:43.328Z,100.00
2022-10-06T01:54:44.635Z,100.00
2022-10-06T02:04:46.300Z,100.00
2022-10-06T02:14:47.601Z,100.00
2022-10-06T02:24:49.153Z,100.00
2022-10-06T02:34:50.443Z,100.00
2022-10-06T02:44:52.317Z,100.00
2022-10-06T02:54:53.614Z,100.00
2022-10-06T03:04:54.927Z,100.00
2022-10-06T03:14:56.232Z,100.00
2022-10-06T03:24:57.580Z,100.00
2022-10-06T03:34:58.894Z,100.00
2022-10-06T03:45:00.558Z,100.00
2022-10-06T03:55:01.865Z,100.00
2022-10-06T04:05:03.219Z,100.00
2022-10-06T04:15:04.544Z,100.00
2022-10-06T04:25:05.792Z,100.00
2022-10-06T04:35:07.104Z,100.00
2022-10-06T04:45:08.416Z,100.00
2022-10-06T04:55:11.160Z,100.00
2022-10-06T05:05:12.489Z,100.00
2022-10-06T05:15:15.574Z,100.00
2022-10-06T05:25:16.942Z,100.00
2022-10-06T05:35:18.365Z,100.00
2022-10-06T05:45:19.751Z,100.00
2022-10-06T05:55:21.068Z,100.00
2022-10-06T06:05:22.407Z,100.00
2022-10-06T06:15:42.428Z,100.00
2022-10-06T06:25:44.292Z,100.00
2022-10-06T06:35:45.611Z,100.00
2022-10-06T06:45:46.971Z,100.00
2022-10-06T06:55:50.475Z,100.00
2022-10-06T07:05:51.830Z,100.00
2022-10-06T07:16:28.416Z,100.00
2022-10-06T07:26:31.049Z,100.00
2022-10-06T07:36:32.401Z,100.00
2022-10-06T07:46:33.723Z,100.00
2022-10-06T07:56:35.046Z,100.00
2022-10-06T08:06:36.275Z,100.00
2022-10-06T08:16:37.684Z,100.00
2022-10-06T08:26:39.085Z,100.00
2022-10-06T08:36:45.026Z,100.00
2022-10-06T08:46:53.687Z,100.00
2022-10-06T08:56:55.030Z,100.00
2022-10-06T09:07:00.032Z,100.00
2022-10-06T09:17:01.348Z,100.00
2022-10-06T09:27:02.705Z,96.63
2022-10-06T09:37:04.110Z,95.93
2022-10-06T09:47:05.359Z,93.85
2022-10-06T09:57:06.599Z,94.41
2022-10-06T10:07:07.832Z,95.79
2022-10-06T10:17:09.162Z,94.72
2022-10-06T10:27:14.145Z,94.84
2022-10-06T10:37:15.495Z,93.33
2022-10-06T10:47:16.888Z,89.87
2022-10-06T10:57:18.257Z,87.87
2022-10-06T11:07:21.288Z,86.16
2022-10-06T11:17:22.688Z,88.28
2022-10-06T11:27:24.110Z,83.85
2022-10-06T11:37:25.520Z,84.46
2022-10-06T11:47:35.123Z,83.10
2022-10-06T11:57:37.351Z,80.37
2022-10-06T12:07:38.836Z,77.14
2022-10-06T12:17:40.458Z,80.82
2022-10-06T12:27:41.725Z,60.21
2022-10-06T12:37:43.106Z,60.52
2022-10-06T12:47:44.558Z,60.60
2022-10-06T12:57:45.867Z,60.61
2022-10-06T13:07:47.078Z,60.69
2022-10-06T13:17:48.366Z,60.31
2022-10-06T13:27:51.332Z,61.26
2022-10-06T13:37:52.684Z,59.30
2022-10-06T13:47:54.008Z,60.77
2022-10-06T13:57:55.343Z,64.82
2022-10-06T14:07:56.734Z,63.08
2022-10-06T14:17:58.226Z,59.44
2022-10-06T14:27:59.579Z,58.45
2022-10-06T14:38:01.259Z,59.03
2022-10-06T14:48:04.542Z,57.48
2022-10-06T14:58:05.802Z,62.57
2022-10-06T15:08:10.487Z,59.66
2022-10-06T15:18:11.794Z,59.73
2022-10-06T15:28:31.723Z,61.31
2022-10-06T15:38:33.160Z,61.82
2022-10-06T15:48:34.467Z,67.30
2022-10-06T15:58:35.963Z,68.12
2022-10-06T16:08:37.339Z,74.29
2022-10-06T16:18:38.708Z,79.93
2022-10-06T16:28:40.078Z,87.39
2022-10-06T16:38:41.482Z,95.45
2022-10-06T16:48:42.759Z,100.00
2022-10-06T16:58:56.041Z,100.00
2022-10-06T17:08:57.271Z,100.00
2022-10-06T17:18:58.522Z,100.00
2022-10-06T17:28:59.816Z,100.00
2022-10-06T17:39:03.961Z,100.00
2022-10-06T17:49:05.705Z,100.00
2022-10-06T17:59:07.427Z,100.00
2022-10-06T18:09:08.836Z,100.00
2022-10-06T18:19:10.219Z,100.00
2022-10-06T18:29:11.558Z,100.00
2022-10-06T18:39:12.838Z,100.00
2022-10-06T18:49:15.493Z,100.00
2022-10-06T18:59:16.778Z,100.00
2022-10-06T19:09:18.281Z,100.00
2022-10-06T19:19:22.069Z,100.00
2022-10-06T19:29:23.733Z,100.00
2022-10-06T19:39:25.089Z,100.00
2022-10-06T19:49:26.394Z,100.00
2022-10-06T19:59:27.779Z,100.00
2022-10-06T20:09:29.857Z,100.00
2022-10-06T20:19:31.262Z,100.00
2022-10-06T20:29:32.695Z,100.00
2022-10-06T20:39:52.621Z,100.00
2022-10-06T20:49:55.400Z,100.00
2022-10-06T20:59:57.168Z,100.00
2022-10-06T21:09:58.765Z,100.00
2022-10-06T21:20:00.204Z,100.00
2022-10-06T21:30:01.655Z,100.00
2022-10-06T21:40:03.094Z,100.00
2022-10-06T21:50:04.538Z,100.00
2022-10-06T22:00:06.125Z,100.00
2022-10-06T22:10:07.550Z,100.00
2022-10-06T22:20:08.972Z,100.00
2022-10-06T22:30:10.461Z,100.00
2022-10-06T22:40:11.932Z,100.00
2022-10-06T22:50:13.361Z,100.00
2022-10-06T23:00:14.812Z,100.00
2022-10-06T23:10:16.709Z,100.00
2022-10-06T23:20:18.107Z,100.00
2022-10-06T23:30:19.540Z,100.00
2022-10-06T23:40:20.998Z,100.00
2022-10-06T23:50:22.426Z,100.00
